sensor_id;sensor_type;location;lat;lon;timestamp;P1;durP1;ratioP1;P2;durP2;ratioP2
24813;SDS011;12904;50.088;11.414;2022-12-07T00:01:38;8.82;;;6.30;;
24813;SDS011;12904;50.088;11.414;2022-12-07T00:04:05;8.88;;;6.68;;
24813;SDS011;12904;50.088;11.414;2022-12-07T00:06:33;9.45;;;6.50;;
24813;SDS011;12904;50.088;11.414;2022-12-07T00:09:03;9.10;;;7.35;;
24813;SDS011;12904;50.088;11.414;2022-12-07T00:11:30;7.32;;;6.07;;
24813;SDS011;12904;50.088;11.414;2022-12-07T00:13:57;9.40;;;6.63;;
24813;SDS011;12904;50.088;11.414;2022-12-07T00:16:25;12.80;;;7.10;;
24813;SDS011;12904;50.088;11.414;2022-12-07T00:18:54;10.77;;;6.80;;
24813;SDS011;12904;50.088;11.414;2022-12-07T00:21:21;8.80;;;6.53;;
24813;SDS011;12904;50.088;11.414;2022-12-07T00:23:57;10.85;;;6.93;;
24813;SDS011;12904;50.088;11.414;2022-12-07T00:26:24;10.80;;;6.15;;
24813;SDS011;12904;50.088;11.414;2022-12-07T00:28:51;7.72;;;6.38;;
24813;SDS011;12904;50.088;11.414;2022-12-07T00:31:19;9.32;;;7.05;;
24813;SDS011;12904;50.088;11.414;2022-12-07T00:33:45;7.82;;;6.55;;
24813;SDS011;12904;50.088;11.414;2022-12-07T00:36:13;16.20;;;7.38;;
24813;SDS011;12904;50.088;11.414;2022-12-07T00:38:40;7.93;;;6.20;;
24813;SDS011;12904;50.088;11.414;2022-12-07T00:41:08;7.45;;;5.85;;
24813;SDS011;12904;50.088;11.414;2022-12-07T00:43:34;7.88;;;6.95;;
24813;SDS011;12904;50.088;11.414;2022-12-07T00:46:00;8.60;;;6.13;;
24813;SDS011;12904;50.088;11.414;2022-12-07T00:48:26;12.10;;;6.45;;
24813;SDS011;12904;50.088;11.414;2022-12-07T00:50:51;11.48;;;9.40;;
24813;SDS011;12904;50.088;11.414;2022-12-07T00:53:17;16.42;;;8.15;;
24813;SDS011;12904;50.088;11.414;2022-12-07T00:55:43;8.45;;;7.40;;
24813;SDS011;12904;50.088;11.414;2022-12-07T00:58:09;14.23;;;7.22;;
24813;SDS011;12904;50.088;11.414;2022-12-07T01:00:35;12.68;;;8.85;;
24813;SDS011;12904;50.088;11.414;2022-12-07T01:03:03;15.65;;;8.70;;
24813;SDS011;12904;50.088;11.414;2022-12-07T01:05:30;12.05;;;8.50;;
24813;SDS011;12904;50.088;11.414;2022-12-07T01:07:55;11.82;;;7.95;;
24813;SDS011;12904;50.088;11.414;2022-12-07T01:10:21;14.00;;;8.88;;
24813;SDS011;12904;50.088;11.414;2022-12-07T01:12:47;12.38;;;8.55;;
24813;SDS011;12904;50.088;11.414;2022-12-07T01:15:12;14.60;;;9.00;;
24813;SDS011;12904;50.088;11.414;2022-12-07T01:17:38;14.98;;;9.13;;
24813;SDS011;12904;50.088;11.414;2022-12-07T01:20:04;13.90;;;9.38;;
24813;SDS011;12904;50.088;11.414;2022-12-07T01:22:30;10.52;;;8.00;;
24813;SDS011;12904;50.088;11.414;2022-12-07T01:24:56;11.52;;;7.65;;
24813;SDS011;12904;50.088;11.414;2022-12-07T01:27:21;9.82;;;7.13;;
24813;SDS011;12904;50.088;11.414;2022-12-07T01:29:47;9.73;;;7.55;;
24813;SDS011;12904;50.088;11.414;2022-12-07T01:32:13;9.15;;;7.45;;
24813;SDS011;12904;50.088;11.414;2022-12-07T01:34:38;11.98;;;7.55;;
24813;SDS011;12904;50.088;11.414;2022-12-07T01:37:04;13.07;;;7.20;;
24813;SDS011;12904;50.088;11.414;2022-12-07T01:39:30;14.30;;;8.23;;
24813;SDS011;12904;50.088;11.414;2022-12-07T01:41:55;12.65;;;7.55;;
24813;SDS011;12904;50.088;11.414;2022-12-07T01:44:25;10.40;;;7.80;;
24813;SDS011;12904;50.088;11.414;2022-12-07T01:46:59;11.65;;;7.40;;
24813;SDS011;12904;50.088;11.414;2022-12-07T01:49:45;14.43;;;8.25;;
24813;SDS011;12904;50.088;11.414;2022-12-07T01:52:14;12.63;;;7.75;;
24813;SDS011;12904;50.088;11.414;2022-12-07T01:54:41;12.52;;;7.30;;
24813;SDS011;12904;50.088;11.414;2022-12-07T01:57:09;15.93;;;8.25;;
24813;SDS011;12904;50.088;11.414;2022-12-07T01:59:35;13.35;;;8.18;;
24813;SDS011;12904;50.088;11.414;2022-12-07T02:02:02;19.00;;;8.90;;
24813;SDS011;12904;50.088;11.414;2022-12-07T02:04:31;10.98;;;7.70;;
24813;SDS011;12904;50.088;11.414;2022-12-07T02:06:57;14.48;;;8.05;;
24813;SDS011;12904;50.088;11.414;2022-12-07T02:09:23;23.20;;;10.70;;
24813;SDS011;12904;50.088;11.414;2022-12-07T02:11:48;13.32;;;8.57;;
24813;SDS011;12904;50.088;11.414;2022-12-07T02:14:15;13.60;;;8.80;;
24813;SDS011;12904;50.088;11.414;2022-12-07T02:19:32;16.92;;;8.45;;
24813;SDS011;12904;50.088;11.414;2022-12-07T02:24:47;19.02;;;8.57;;
24813;SDS011;12904;50.088;11.414;2022-12-07T02:30:20;16.83;;;9.15;;
24813;SDS011;12904;50.088;11.414;2022-12-07T02:33:10;16.80;;;7.75;;
24813;SDS011;12904;50.088;11.414;2022-12-07T02:35:53;18.02;;;8.63;;
24813;SDS011;12904;50.088;11.414;2022-12-07T02:38:26;13.60;;;9.43;;
24813;SDS011;12904;50.088;11.414;2022-12-07T02:43:36;15.02;;;9.23;;
24813;SDS011;12904;50.088;11.414;2022-12-07T02:46:11;15.57;;;10.52;;
24813;SDS011;12904;50.088;11.414;2022-12-07T02:48:41;25.05;;;14.65;;
24813;SDS011;12904;50.088;11.414;2022-12-07T02:51:09;22.30;;;10.95;;
24813;SDS011;12904;50.088;11.414;2022-12-07T02:53:38;20.67;;;9.70;;
24813;SDS011;12904;50.088;11.414;2022-12-07T02:58:41;15.50;;;9.88;;
24813;SDS011;12904;50.088;11.414;2022-12-07T03:01:50;21.95;;;12.27;;
24813;SDS011;12904;50.088;11.414;2022-12-07T03:10:52;29.05;;;14.70;;
24813;SDS011;12904;50.088;11.414;2022-12-07T03:13:15;33.63;;;18.75;;
24813;SDS011;12904;50.088;11.414;2022-12-07T03:18:38;18.25;;;10.23;;
24813;SDS011;12904;50.088;11.414;2022-12-07T03:21:33;21.90;;;9.85;;
24813;SDS011;12904;50.088;11.414;2022-12-07T03:24:07;16.35;;;9.80;;
24813;SDS011;12904;50.088;11.414;2022-12-07T03:26:38;29.88;;;9.75;;
24813;SDS011;12904;50.088;11.414;2022-12-07T03:29:17;18.60;;;8.98;;
24813;SDS011;12904;50.088;11.414;2022-12-07T03:32:05;13.63;;;9.57;;
24813;SDS011;12904;50.088;11.414;2022-12-07T03:34:56;20.27;;;10.10;;
24813;SDS011;12904;50.088;11.414;2022-12-07T03:37:43;21.50;;;9.80;;
24813;SDS011;12904;50.088;11.414;2022-12-07T03:40:26;16.35;;;8.50;;
24813;SDS011;12904;50.088;11.414;2022-12-07T03:43:14;26.77;;;9.48;;
24813;SDS011;12904;50.088;11.414;2022-12-07T03:45:43;30.48;;;9.43;;
24813;SDS011;12904;50.088;11.414;2022-12-07T03:48:51;27.52;;;11.40;;
24813;SDS011;12904;50.088;11.414;2022-12-07T03:51:21;17.80;;;9.80;;
24813;SDS011;12904;50.088;11.414;2022-12-07T03:54:06;19.25;;;10.18;;
24813;SDS011;12904;50.088;11.414;2022-12-07T03:56:32;27.90;;;9.68;;
24813;SDS011;12904;50.088;11.414;2022-12-07T03:58:59;19.08;;;8.95;;
24813;SDS011;12904;50.088;11.414;2022-12-07T04:01:25;18.20;;;9.88;;
24813;SDS011;12904;50.088;11.414;2022-12-07T04:03:51;17.20;;;10.45;;
24813;SDS011;12904;50.088;11.414;2022-12-07T04:06:16;17.17;;;10.27;;
24813;SDS011;12904;50.088;11.414;2022-12-07T04:08:42;21.70;;;10.20;;
24813;SDS011;12904;50.088;11.414;2022-12-07T04:11:08;17.88;;;10.02;;
24813;SDS011;12904;50.088;11.414;2022-12-07T04:13:33;14.20;;;8.77;;
24813;SDS011;12904;50.088;11.414;2022-12-07T04:16:19;13.85;;;9.90;;
24813;SDS011;12904;50.088;11.414;2022-12-07T04:18:45;18.15;;;11.30;;
24813;SDS011;12904;50.088;11.414;2022-12-07T04:21:11;20.42;;;10.48;;
24813;SDS011;12904;50.088;11.414;2022-12-07T04:23:36;32.75;;;14.65;;
24813;SDS011;12904;50.088;11.414;2022-12-07T04:26:02;73.72;;;24.35;;
24813;SDS011;12904;50.088;11.414;2022-12-07T04:28:27;125.75;;;32.38;;
24813;SDS011;12904;50.088;11.414;2022-12-07T04:30:53;84.60;;;25.63;;
24813;SDS011;12904;50.088;11.414;2022-12-07T04:33:18;66.43;;;22.48;;
24813;SDS011;12904;50.088;11.414;2022-12-07T04:35:44;66.45;;;20.10;;
24813;SDS011;12904;50.088;11.414;2022-12-07T04:38:10;27.48;;;12.95;;
24813;SDS011;12904;50.088;11.414;2022-12-07T04:40:35;16.92;;;9.95;;
24813;SDS011;12904;50.088;11.414;2022-12-07T04:43:01;18.73;;;10.95;;
24813;SDS011;12904;50.088;11.414;2022-12-07T04:45:27;15.27;;;11.65;;
24813;SDS011;12904;50.088;11.414;2022-12-07T04:47:52;15.48;;;10.93;;
24813;SDS011;12904;50.088;11.414;2022-12-07T04:50:18;17.55;;;11.18;;
24813;SDS011;12904;50.088;11.414;2022-12-07T04:52:44;19.40;;;12.63;;
24813;SDS011;12904;50.088;11.414;2022-12-07T04:55:09;20.10;;;12.85;;
24813;SDS011;12904;50.088;11.414;2022-12-07T04:57:35;27.77;;;13.55;;
24813;SDS011;12904;50.088;11.414;2022-12-07T05:00:00;20.30;;;12.80;;
24813;SDS011;12904;50.088;11.414;2022-12-07T05:02:26;20.42;;;11.88;;
24813;SDS011;12904;50.088;11.414;2022-12-07T05:04:52;18.73;;;12.40;;
24813;SDS011;12904;50.088;11.414;2022-12-07T05:07:17;18.65;;;10.90;;
24813;SDS011;12904;50.088;11.414;2022-12-07T05:09:43;19.00;;;12.13;;
24813;SDS011;12904;50.088;11.414;2022-12-07T05:12:09;15.55;;;10.77;;
24813;SDS011;12904;50.088;11.414;2022-12-07T05:14:34;16.55;;;11.05;;
24813;SDS011;12904;50.088;11.414;2022-12-07T05:17:00;15.35;;;11.07;;
24813;SDS011;12904;50.088;11.414;2022-12-07T05:19:26;19.83;;;12.43;;
24813;SDS011;12904;50.088;11.414;2022-12-07T05:21:51;21.83;;;11.45;;
24813;SDS011;12904;50.088;11.414;2022-12-07T05:24:17;19.55;;;11.32;;
24813;SDS011;12904;50.088;11.414;2022-12-07T05:26:43;24.27;;;12.50;;
24813;SDS011;12904;50.088;11.414;2022-12-07T05:29:10;22.02;;;11.73;;
24813;SDS011;12904;50.088;11.414;2022-12-07T05:31:37;22.35;;;12.77;;
24813;SDS011;12904;50.088;11.414;2022-12-07T05:34:03;30.52;;;12.70;;
24813;SDS011;12904;50.088;11.414;2022-12-07T05:36:28;30.20;;;12.27;;
24813;SDS011;12904;50.088;11.414;2022-12-07T05:38:56;36.63;;;11.82;;
24813;SDS011;12904;50.088;11.414;2022-12-07T05:41:22;23.95;;;13.02;;
24813;SDS011;12904;50.088;11.414;2022-12-07T05:44:06;23.33;;;13.00;;
24813;SDS011;12904;50.088;11.414;2022-12-07T05:46:32;25.95;;;13.93;;
24813;SDS011;12904;50.088;11.414;2022-12-07T05:48:58;25.48;;;13.38;;
24813;SDS011;12904;50.088;11.414;2022-12-07T05:51:23;29.35;;;13.45;;
24813;SDS011;12904;50.088;11.414;2022-12-07T05:53:49;26.50;;;14.80;;
24813;SDS011;12904;50.088;11.414;2022-12-07T05:56:15;41.50;;;20.90;;
24813;SDS011;12904;50.088;11.414;2022-12-07T05:58:40;47.67;;;20.58;;
24813;SDS011;12904;50.088;11.414;2022-12-07T06:01:24;23.80;;;14.70;;
24813;SDS011;12904;50.088;11.414;2022-12-07T06:03:50;32.38;;;15.18;;
24813;SDS011;12904;50.088;11.414;2022-12-07T06:06:16;28.20;;;15.25;;
24813;SDS011;12904;50.088;11.414;2022-12-07T06:08:41;30.50;;;14.75;;
24813;SDS011;12904;50.088;11.414;2022-12-07T06:11:07;30.13;;;14.20;;
24813;SDS011;12904;50.088;11.414;2022-12-07T06:13:51;25.27;;;13.70;;
24813;SDS011;12904;50.088;11.414;2022-12-07T06:16:17;26.35;;;13.02;;
24813;SDS011;12904;50.088;11.414;2022-12-07T06:18:43;22.10;;;11.95;;
24813;SDS011;12904;50.088;11.414;2022-12-07T06:21:09;24.73;;;12.48;;
24813;SDS011;12904;50.088;11.414;2022-12-07T06:23:35;23.15;;;12.35;;
24813;SDS011;12904;50.088;11.414;2022-12-07T06:26:00;19.75;;;11.55;;
24813;SDS011;12904;50.088;11.414;2022-12-07T06:28:26;23.60;;;12.13;;
24813;SDS011;12904;50.088;11.414;2022-12-07T06:30:58;23.75;;;11.57;;
24813;SDS011;12904;50.088;11.414;2022-12-07T06:33:25;15.98;;;10.43;;
24813;SDS011;12904;50.088;11.414;2022-12-07T06:35:51;20.15;;;10.75;;
24813;SDS011;12904;50.088;11.414;2022-12-07T06:38:17;19.05;;;10.23;;
24813;SDS011;12904;50.088;11.414;2022-12-07T06:40:43;13.57;;;9.68;;
24813;SDS011;12904;50.088;11.414;2022-12-07T06:43:09;19.60;;;11.85;;
24813;SDS011;12904;50.088;11.414;2022-12-07T06:45:34;23.48;;;12.02;;
24813;SDS011;12904;50.088;11.414;2022-12-07T06:48:00;20.50;;;11.57;;
24813;SDS011;12904;50.088;11.414;2022-12-07T06:50:25;25.55;;;13.80;;
24813;SDS011;12904;50.088;11.414;2022-12-07T06:52:51;22.02;;;12.18;;
24813;SDS011;12904;50.088;11.414;2022-12-07T06:55:17;18.80;;;13.05;;
24813;SDS011;12904;50.088;11.414;2022-12-07T06:57:43;18.08;;;12.13;;
24813;SDS011;12904;50.088;11.414;2022-12-07T07:00:08;21.05;;;13.10;;
24813;SDS011;12904;50.088;11.414;2022-12-07T07:02:35;22.02;;;13.70;;
24813;SDS011;12904;50.088;11.414;2022-12-07T07:05:00;26.27;;;15.75;;
24813;SDS011;12904;50.088;11.414;2022-12-07T07:07:26;24.60;;;14.82;;
24813;SDS011;12904;50.088;11.414;2022-12-07T07:09:52;28.63;;;15.05;;
24813;SDS011;12904;50.088;11.414;2022-12-07T07:12:17;22.92;;;14.40;;
24813;SDS011;12904;50.088;11.414;2022-12-07T07:14:43;46.97;;;22.40;;
24813;SDS011;12904;50.088;11.414;2022-12-07T07:17:08;43.40;;;20.77;;
24813;SDS011;12904;50.088;11.414;2022-12-07T07:19:34;48.65;;;25.08;;
24813;SDS011;12904;50.088;11.414;2022-12-07T07:22:00;37.67;;;19.13;;
24813;SDS011;12904;50.088;11.414;2022-12-07T07:24:25;43.97;;;23.88;;
24813;SDS011;12904;50.088;11.414;2022-12-07T07:26:51;22.20;;;14.15;;
24813;SDS011;12904;50.088;11.414;2022-12-07T07:29:17;36.90;;;23.73;;
24813;SDS011;12904;50.088;11.414;2022-12-07T07:31:42;30.40;;;16.70;;
24813;SDS011;12904;50.088;11.414;2022-12-07T07:34:08;41.22;;;24.48;;
24813;SDS011;12904;50.088;11.414;2022-12-07T07:36:34;36.85;;;24.13;;
24813;SDS011;12904;50.088;11.414;2022-12-07T07:38:59;31.33;;;18.25;;
24813;SDS011;12904;50.088;11.414;2022-12-07T07:41:25;31.35;;;19.38;;
24813;SDS011;12904;50.088;11.414;2022-12-07T07:43:50;26.25;;;16.88;;
24813;SDS011;12904;50.088;11.414;2022-12-07T07:46:16;33.50;;;19.20;;
24813;SDS011;12904;50.088;11.414;2022-12-07T07:48:42;30.85;;;14.30;;
24813;SDS011;12904;50.088;11.414;2022-12-07T07:51:08;33.35;;;21.40;;
24813;SDS011;12904;50.088;11.414;2022-12-07T07:53:34;38.55;;;22.55;;
24813;SDS011;12904;50.088;11.414;2022-12-07T07:55:59;37.08;;;20.17;;
24813;SDS011;12904;50.088;11.414;2022-12-07T07:58:25;30.30;;;18.17;;
24813;SDS011;12904;50.088;11.414;2022-12-07T08:00:50;33.25;;;23.10;;
24813;SDS011;12904;50.088;11.414;2022-12-07T08:03:16;33.25;;;17.58;;
24813;SDS011;12904;50.088;11.414;2022-12-07T08:05:42;32.22;;;18.02;;
24813;SDS011;12904;50.088;11.414;2022-12-07T08:08:08;25.88;;;16.52;;
24813;SDS011;12904;50.088;11.414;2022-12-07T08:10:33;30.70;;;19.90;;
24813;SDS011;12904;50.088;11.414;2022-12-07T08:13:00;24.33;;;14.75;;
24813;SDS011;12904;50.088;11.414;2022-12-07T08:15:42;33.70;;;21.30;;
24813;SDS011;12904;50.088;11.414;2022-12-07T08:18:09;23.55;;;15.73;;
24813;SDS011;12904;50.088;11.414;2022-12-07T08:20:36;27.73;;;15.18;;
24813;SDS011;12904;50.088;11.414;2022-12-07T08:23:03;27.83;;;18.17;;
24813;SDS011;12904;50.088;11.414;2022-12-07T08:25:29;27.85;;;17.55;;
24813;SDS011;12904;50.088;11.414;2022-12-07T08:27:55;25.83;;;15.85;;
24813;SDS011;12904;50.088;11.414;2022-12-07T08:30:20;26.90;;;15.43;;
24813;SDS011;12904;50.088;11.414;2022-12-07T08:32:47;22.77;;;14.95;;
24813;SDS011;12904;50.088;11.414;2022-12-07T08:35:13;24.55;;;14.20;;
24813;SDS011;12904;50.088;11.414;2022-12-07T08:37:40;24.42;;;14.85;;
24813;SDS011;12904;50.088;11.414;2022-12-07T08:40:06;21.23;;;14.15;;
24813;SDS011;12904;50.088;11.414;2022-12-07T08:42:33;21.42;;;14.18;;
24813;SDS011;12904;50.088;11.414;2022-12-07T08:45:06;22.92;;;14.95;;
24813;SDS011;12904;50.088;11.414;2022-12-07T08:47:34;25.58;;;15.02;;
24813;SDS011;12904;50.088;11.414;2022-12-07T08:50:05;27.30;;;13.98;;
24813;SDS011;12904;50.088;11.414;2022-12-07T08:52:34;25.88;;;14.90;;
24813;SDS011;12904;50.088;11.414;2022-12-07T08:55:00;21.67;;;13.13;;
24813;SDS011;12904;50.088;11.414;2022-12-07T08:57:28;22.15;;;13.60;;
24813;SDS011;12904;50.088;11.414;2022-12-07T08:59:55;23.80;;;14.80;;
24813;SDS011;12904;50.088;11.414;2022-12-07T09:02:21;24.77;;;13.93;;
24813;SDS011;12904;50.088;11.414;2022-12-07T09:04:46;24.45;;;13.95;;
24813;SDS011;12904;50.088;11.414;2022-12-07T09:07:12;21.52;;;13.13;;
24813;SDS011;12904;50.088;11.414;2022-12-07T09:09:38;21.73;;;13.82;;
24813;SDS011;12904;50.088;11.414;2022-12-07T09:12:03;20.35;;;13.32;;
24813;SDS011;12904;50.088;11.414;2022-12-07T09:14:29;18.83;;;12.88;;
24813;SDS011;12904;50.088;11.414;2022-12-07T09:16:55;23.05;;;13.45;;
24813;SDS011;12904;50.088;11.414;2022-12-07T09:19:29;23.13;;;13.93;;
24813;SDS011;12904;50.088;11.414;2022-12-07T09:21:54;21.50;;;13.00;;
24813;SDS011;12904;50.088;11.414;2022-12-07T09:24:20;22.85;;;12.98;;
24813;SDS011;12904;50.088;11.414;2022-12-07T09:26:47;18.00;;;11.60;;
24813;SDS011;12904;50.088;11.414;2022-12-07T09:29:13;20.40;;;11.93;;
24813;SDS011;12904;50.088;11.414;2022-12-07T09:31:38;18.65;;;11.85;;
24813;SDS011;12904;50.088;11.414;2022-12-07T09:34:04;21.67;;;13.82;;
24813;SDS011;12904;50.088;11.414;2022-12-07T09:36:30;21.08;;;13.00;;
24813;SDS011;12904;50.088;11.414;2022-12-07T09:38:56;16.58;;;11.27;;
24813;SDS011;12904;50.088;11.414;2022-12-07T09:41:22;17.98;;;12.63;;
24813;SDS011;12904;50.088;11.414;2022-12-07T09:43:50;18.73;;;11.48;;
24813;SDS011;12904;50.088;11.414;2022-12-07T09:46:17;19.95;;;11.20;;
24813;SDS011;12904;50.088;11.414;2022-12-07T09:48:45;19.25;;;12.65;;
24813;SDS011;12904;50.088;11.414;2022-12-07T09:51:22;18.15;;;11.70;;
24813;SDS011;12904;50.088;11.414;2022-12-07T09:53:49;17.88;;;13.18;;
24813;SDS011;12904;50.088;11.414;2022-12-07T09:56:17;17.25;;;12.27;;
24813;SDS011;12904;50.088;11.414;2022-12-07T09:58:45;16.45;;;11.45;;
24813;SDS011;12904;50.088;11.414;2022-12-07T10:01:16;17.77;;;11.52;;
24813;SDS011;12904;50.088;11.414;2022-12-07T10:03:58;15.85;;;10.77;;
24813;SDS011;12904;50.088;11.414;2022-12-07T10:06:41;16.95;;;11.93;;
24813;SDS011;12904;50.088;11.414;2022-12-07T10:09:14;20.38;;;12.18;;
24813;SDS011;12904;50.088;11.414;2022-12-07T10:14:37;18.13;;;12.73;;
24813;SDS011;12904;50.088;11.414;2022-12-07T10:17:48;16.70;;;13.40;;
24813;SDS011;12904;50.088;11.414;2022-12-07T10:25:36;16.15;;;11.70;;
24813;SDS011;12904;50.088;11.414;2022-12-07T10:30:32;15.65;;;11.88;;
24813;SDS011;12904;50.088;11.414;2022-12-07T10:32:58;16.45;;;10.50;;
24813;SDS011;12904;50.088;11.414;2022-12-07T10:37:51;13.13;;;9.98;;
24813;SDS011;12904;50.088;11.414;2022-12-07T10:40:32;16.73;;;9.68;;
24813;SDS011;12904;50.088;11.414;2022-12-07T10:43:05;12.50;;;9.73;;
24813;SDS011;12904;50.088;11.414;2022-12-07T10:53:57;13.10;;;9.32;;
24813;SDS011;12904;50.088;11.414;2022-12-07T10:59:30;10.32;;;8.18;;
24813;SDS011;12904;50.088;11.414;2022-12-07T11:04:59;10.10;;;7.43;;
24813;SDS011;12904;50.088;11.414;2022-12-07T11:07:43;8.88;;;7.22;;
24813;SDS011;12904;50.088;11.414;2022-12-07T11:16:23;9.23;;;7.25;;
24813;SDS011;12904;50.088;11.414;2022-12-07T11:37:55;8.00;;;7.18;;
24813;SDS011;12904;50.088;11.414;2022-12-07T11:40:34;8.75;;;7.47;;
24813;SDS011;12904;50.088;11.414;2022-12-07T11:46:03;8.45;;;6.70;;
24813;SDS011;12904;50.088;11.414;2022-12-07T11:48:44;8.68;;;7.78;;
24813;SDS011;12904;50.088;11.414;2022-12-07T11:51:19;8.20;;;6.78;;
24813;SDS011;12904;50.088;11.414;2022-12-07T11:53:49;8.05;;;7.07;;
24813;SDS011;12904;50.088;11.414;2022-12-07T11:56:20;12.55;;;7.85;;
24813;SDS011;12904;50.088;11.414;2022-12-07T11:58:49;9.63;;;8.13;;
24813;SDS011;12904;50.088;11.414;2022-12-07T12:01:29;9.77;;;7.93;;
24813;SDS011;12904;50.088;11.414;2022-12-07T12:06:35;8.32;;;6.60;;
24813;SDS011;12904;50.088;11.414;2022-12-07T12:09:12;8.73;;;7.80;;
24813;SDS011;12904;50.088;11.414;2022-12-07T12:14:17;10.48;;;7.63;;
24813;SDS011;12904;50.088;11.414;2022-12-07T12:19:30;8.23;;;5.75;;
24813;SDS011;12904;50.088;11.414;2022-12-07T12:22:18;7.70;;;5.70;;
24813;SDS011;12904;50.088;11.414;2022-12-07T12:27:26;9.13;;;5.85;;
24813;SDS011;12904;50.088;11.414;2022-12-07T12:29:56;7.93;;;7.10;;
24813;SDS011;12904;50.088;11.414;2022-12-07T12:37:46;6.13;;;5.45;;
24813;SDS011;12904;50.088;11.414;2022-12-07T12:42:44;11.18;;;5.80;;
24813;SDS011;12904;50.088;11.414;2022-12-07T12:45:20;6.55;;;5.60;;
24813;SDS011;12904;50.088;11.414;2022-12-07T12:55:43;5.43;;;4.90;;
24813;SDS011;12904;50.088;11.414;2022-12-07T13:00:47;5.07;;;3.67;;
24813;SDS011;12904;50.088;11.414;2022-12-07T13:03:32;6.28;;;4.53;;
24813;SDS011;12904;50.088;11.414;2022-12-07T13:08:54;8.60;;;6.43;;
24813;SDS011;12904;50.088;11.414;2022-12-07T13:17:12;8.57;;;4.30;;
24813;SDS011;12904;50.088;11.414;2022-12-07T13:30:15;6.22;;;5.63;;
24813;SDS011;12904;50.088;11.414;2022-12-07T13:32:43;8.73;;;5.50;;
24813;SDS011;12904;50.088;11.414;2022-12-07T13:35:27;6.38;;;5.40;;
24813;SDS011;12904;50.088;11.414;2022-12-07T13:38:33;6.20;;;5.43;;
24813;SDS011;12904;50.088;11.414;2022-12-07T13:43:43;6.47;;;5.82;;
24813;SDS011;12904;50.088;11.414;2022-12-07T13:46:28;6.85;;;5.25;;
24813;SDS011;12904;50.088;11.414;2022-12-07T13:49:23;6.00;;;4.82;;
24813;SDS011;12904;50.088;11.414;2022-12-07T13:51:54;7.90;;;5.03;;
24813;SDS011;12904;50.088;11.414;2022-12-07T13:54:31;7.10;;;5.00;;
24813;SDS011;12904;50.088;11.414;2022-12-07T13:56:57;7.10;;;4.43;;
24813;SDS011;12904;50.088;11.414;2022-12-07T13:59:24;5.72;;;4.40;;
24813;SDS011;12904;50.088;11.414;2022-12-07T14:01:51;5.70;;;4.65;;
24813;SDS011;12904;50.088;11.414;2022-12-07T14:04:29;6.63;;;4.97;;
24813;SDS011;12904;50.088;11.414;2022-12-07T14:06:57;6.55;;;5.10;;
24813;SDS011;12904;50.088;11.414;2022-12-07T14:09:24;6.57;;;5.45;;
24813;SDS011;12904;50.088;11.414;2022-12-07T14:11:52;6.65;;;5.57;;
24813;SDS011;12904;50.088;11.414;2022-12-07T14:14:24;5.00;;;4.35;;
24813;SDS011;12904;50.088;11.414;2022-12-07T14:19:50;4.72;;;3.30;;
24813;SDS011;12904;50.088;11.414;2022-12-07T14:22:25;6.53;;;4.35;;
24813;SDS011;12904;50.088;11.414;2022-12-07T14:25:01;11.20;;;4.93;;
24813;SDS011;12904;50.088;11.414;2022-12-07T14:27:51;10.35;;;5.18;;
24813;SDS011;12904;50.088;11.414;2022-12-07T14:30:26;10.15;;;5.60;;
24813;SDS011;12904;50.088;11.414;2022-12-07T14:32:55;7.70;;;5.97;;
24813;SDS011;12904;50.088;11.414;2022-12-07T14:35:26;13.13;;;6.97;;
24813;SDS011;12904;50.088;11.414;2022-12-07T14:37:53;13.52;;;8.13;;
24813;SDS011;12904;50.088;11.414;2022-12-07T14:40:22;8.75;;;7.22;;
24813;SDS011;12904;50.088;11.414;2022-12-07T14:42:57;9.60;;;6.35;;
24813;SDS011;12904;50.088;11.414;2022-12-07T14:45:26;7.75;;;5.85;;
24813;SDS011;12904;50.088;11.414;2022-12-07T14:47:52;8.40;;;5.93;;
24813;SDS011;12904;50.088;11.414;2022-12-07T14:50:18;10.60;;;7.03;;
24813;SDS011;12904;50.088;11.414;2022-12-07T14:52:49;13.32;;;7.78;;
24813;SDS011;12904;50.088;11.414;2022-12-07T14:55:39;6.82;;;5.68;;
24813;SDS011;12904;50.088;11.414;2022-12-07T14:58:04;13.65;;;8.77;;
24813;SDS011;12904;50.088;11.414;2022-12-07T15:00:29;14.93;;;10.07;;
24813;SDS011;12904;50.088;11.414;2022-12-07T15:02:55;22.38;;;13.88;;
24813;SDS011;12904;50.088;11.414;2022-12-07T15:05:21;25.25;;;15.10;;
24813;SDS011;12904;50.088;11.414;2022-12-07T15:07:48;13.15;;;9.00;;
24813;SDS011;12904;50.088;11.414;2022-12-07T15:10:18;18.48;;;8.38;;
24813;SDS011;12904;50.088;11.414;2022-12-07T15:12:46;15.05;;;12.77;;
24813;SDS011;12904;50.088;11.414;2022-12-07T15:15:12;17.90;;;16.13;;
24813;SDS011;12904;50.088;11.414;2022-12-07T15:17:38;36.55;;;20.35;;
24813;SDS011;12904;50.088;11.414;2022-12-07T15:20:04;258.48;;;117.22;;
24813;SDS011;12904;50.088;11.414;2022-12-07T15:22:30;399.45;;;190.20;;
24813;SDS011;12904;50.088;11.414;2022-12-07T15:24:56;187.57;;;83.38;;
24813;SDS011;12904;50.088;11.414;2022-12-07T15:27:22;78.93;;;44.05;;
24813;SDS011;12904;50.088;11.414;2022-12-07T15:29:48;17.52;;;13.60;;
24813;SDS011;12904;50.088;11.414;2022-12-07T15:32:13;18.67;;;13.02;;
24813;SDS011;12904;50.088;11.414;2022-12-07T15:34:39;31.77;;;16.60;;
24813;SDS011;12904;50.088;11.414;2022-12-07T15:37:05;22.00;;;14.02;;
24813;SDS011;12904;50.088;11.414;2022-12-07T15:39:31;12.60;;;10.00;;
24813;SDS011;12904;50.088;11.414;2022-12-07T15:41:57;15.68;;;10.98;;
24813;SDS011;12904;50.088;11.414;2022-12-07T15:44:22;13.82;;;11.85;;
24813;SDS011;12904;50.088;11.414;2022-12-07T15:47:06;20.05;;;14.25;;
24813;SDS011;12904;50.088;11.414;2022-12-07T15:49:32;21.85;;;15.38;;
24813;SDS011;12904;50.088;11.414;2022-12-07T15:51:58;22.48;;;15.80;;
24813;SDS011;12904;50.088;11.414;2022-12-07T15:54:25;16.52;;;12.93;;
24813;SDS011;12904;50.088;11.414;2022-12-07T15:56:52;24.42;;;13.43;;
24813;SDS011;12904;50.088;11.414;2022-12-07T15:59:18;17.42;;;12.52;;
24813;SDS011;12904;50.088;11.414;2022-12-07T16:01:44;19.35;;;12.73;;
24813;SDS011;12904;50.088;11.414;2022-12-07T16:04:10;21.88;;;15.40;;
24813;SDS011;12904;50.088;11.414;2022-12-07T16:06:35;21.83;;;14.38;;
24813;SDS011;12904;50.088;11.414;2022-12-07T16:09:02;22.45;;;14.10;;
24813;SDS011;12904;50.088;11.414;2022-12-07T16:11:28;18.90;;;13.35;;
24813;SDS011;12904;50.088;11.414;2022-12-07T16:13:54;21.17;;;14.25;;
24813;SDS011;12904;50.088;11.414;2022-12-07T16:16:19;26.35;;;14.98;;
24813;SDS011;12904;50.088;11.414;2022-12-07T16:18:47;23.75;;;15.27;;
24813;SDS011;12904;50.088;11.414;2022-12-07T16:21:14;33.63;;;18.63;;
24813;SDS011;12904;50.088;11.414;2022-12-07T16:23:40;40.28;;;20.55;;
24813;SDS011;12904;50.088;11.414;2022-12-07T16:26:07;23.30;;;14.05;;
24813;SDS011;12904;50.088;11.414;2022-12-07T16:28:36;22.60;;;10.80;;
24813;SDS011;12904;50.088;11.414;2022-12-07T16:31:06;15.55;;;10.57;;
24813;SDS011;12904;50.088;11.414;2022-12-07T16:33:35;15.70;;;9.38;;
24813;SDS011;12904;50.088;11.414;2022-12-07T16:36:01;16.17;;;9.73;;
24813;SDS011;12904;50.088;11.414;2022-12-07T16:38:30;16.80;;;9.50;;
24813;SDS011;12904;50.088;11.414;2022-12-07T16:40:56;12.38;;;9.18;;